sensor_id;sensor_type;location;lat;lon;timestamp;P1;durP1;ratioP1;P2;durP2;ratioP2
34453;SDS011;60061;52.080;5.312;2022-11-15T00:00:16;48.1;;;22.0;;
34453;SDS011;60061;52.080;5.312;2022-11-15T00:03:29;46.5;;;21.8;;
34453;SDS011;60061;52.080;5.312;2022-11-15T00:05:05;49.6;;;22.4;;
34453;SDS011;60061;52.080;5.312;2022-11-15T00:06:42;54.4;;;21.7;;
34453;SDS011;60061;52.080;5.312;2022-11-15T00:09:55;55.1;;;22.6;;
34453;SDS011;60061;52.080;5.312;2022-11-15T00:11:31;54.4;;;22.8;;
34453;SDS011;60061;52.080;5.312;2022-11-15T00:13:08;57.9;;;24.0;;
34453;SDS011;60061;52.080;5.312;2022-11-15T00:14:46;54.5;;;24.9;;
34453;SDS011;60061;52.080;5.312;2022-11-15T00:19:35;59.9;;;25.2;;
34453;SDS011;60061;52.080;5.312;2022-11-15T00:21:12;59.4;;;24.8;;
34453;SDS011;60061;52.080;5.312;2022-11-15T00:24:28;61.5;;;24.9;;
34453;SDS011;60061;52.080;5.312;2022-11-15T00:26:04;56.8;;;24.5;;
34453;SDS011;60061;52.080;5.312;2022-11-15T00:27:41;67.3;;;26.0;;
34453;SDS011;60061;52.080;5.312;2022-11-15T00:30:53;65.41;;;26.1;;
34453;SDS011;60061;52.080;5.312;2022-11-15T00:32:35;58.7;;;23.3;;
34453;SDS011;60061;52.080;5.312;2022-11-15T00:34:11;68.8;;;26.9;;
34453;SDS011;60061;52.080;5.312;2022-11-15T00:35:47;64.2;;;25.1;;
34453;SDS011;60061;52.080;5.312;2022-11-15T00:38:59;64.41;;;26.0;;
34453;SDS011;60061;52.080;5.312;2022-11-15T00:40:35;60.3;;;25.6;;
34453;SDS011;60061;52.080;5.312;2022-11-15T00:42:11;63.2;;;25.4;;
34453;SDS011;60061;52.080;5.312;2022-11-15T00:45:24;63.8;;;25.2;;
34453;SDS011;60061;52.080;5.312;2022-11-15T00:47:01;59.2;;;25.4;;
34453;SDS011;60061;52.080;5.312;2022-11-15T00:48:37;60.8;;;25.6;;
34453;SDS011;60061;52.080;5.312;2022-11-15T00:51:50;60.0;;;25.9;;
34453;SDS011;60061;52.080;5.312;2022-11-15T00:53:27;67.5;;;26.6;;
34453;SDS011;60061;52.080;5.312;2022-11-15T00:55:03;63.2;;;25.1;;
34453;SDS011;60061;52.080;5.312;2022-11-15T00:56:40;66.7;;;26.7;;
34453;SDS011;60061;52.080;5.312;2022-11-15T00:59:52;63.2;;;26.6;;
34453;SDS011;60061;52.080;5.312;2022-11-15T01:01:28;61.3;;;26.2;;
34453;SDS011;60061;52.080;5.312;2022-11-15T01:03:05;66.6;;;26.2;;
34453;SDS011;60061;52.080;5.312;2022-11-15T01:06:17;62.5;;;25.4;;
34453;SDS011;60061;52.080;5.312;2022-11-15T01:07:53;58.9;;;26.2;;
34453;SDS011;60061;52.080;5.312;2022-11-15T01:09:31;65.3;;;26.0;;
34453;SDS011;60061;52.080;5.312;2022-11-15T01:12:46;57.3;;;25.2;;
34453;SDS011;60061;52.080;5.312;2022-11-15T01:14:23;60.3;;;25.5;;
34453;SDS011;60061;52.080;5.312;2022-11-15T01:15:59;64.8;;;27.5;;
34453;SDS011;60061;52.080;5.312;2022-11-15T01:17:41;56.8;;;25.8;;
34453;SDS011;60061;52.080;5.312;2022-11-15T01:20:53;56.9;;;24.9;;
34453;SDS011;60061;52.080;5.312;2022-11-15T01:22:29;66.3;;;26.7;;
34453;SDS011;60061;52.080;5.312;2022-11-15T01:24:06;59.5;;;26.1;;
34453;SDS011;60061;52.080;5.312;2022-11-15T01:27:20;63.9;;;26.0;;
34453;SDS011;60061;52.080;5.312;2022-11-15T01:28:56;64.6;;;26.9;;
34453;SDS011;60061;52.080;5.312;2022-11-15T01:30:32;65.41;;;26.3;;
34453;SDS011;60061;52.080;5.312;2022-11-15T01:33:45;61.1;;;25.5;;
34453;SDS011;60061;52.080;5.312;2022-11-15T01:35:23;58.7;;;25.9;;
34453;SDS011;60061;52.080;5.312;2022-11-15T01:36:59;56.8;;;25.6;;
34453;SDS011;60061;52.080;5.312;2022-11-15T01:38:36;59.2;;;26.0;;
34453;SDS011;60061;52.080;5.312;2022-11-15T01:41:50;63.6;;;26.5;;
34453;SDS011;60061;52.080;5.312;2022-11-15T01:43:27;59.2;;;26.2;;
34453;SDS011;60061;52.080;5.312;2022-11-15T01:46:51;59.7;;;25.7;;
34453;SDS011;60061;52.080;5.312;2022-11-15T01:50:09;55.9;;;25.6;;
34453;SDS011;60061;52.080;5.312;2022-11-15T01:51:50;64.3;;;26.5;;
34453;SDS011;60061;52.080;5.312;2022-11-15T01:53:27;60.7;;;26.2;;
34453;SDS011;60061;52.080;5.312;2022-11-15T01:56:48;62.6;;;26.1;;
34453;SDS011;60061;52.080;5.312;2022-11-15T01:58:30;64.41;;;26.5;;
34453;SDS011;60061;52.080;5.312;2022-11-15T02:00:07;62.8;;;26.3;;
34453;SDS011;60061;52.080;5.312;2022-11-15T02:01:45;66.0;;;26.9;;
34453;SDS011;60061;52.080;5.312;2022-11-15T02:05:09;61.1;;;25.7;;
34453;SDS011;60061;52.080;5.312;2022-11-15T02:06:46;62.4;;;26.7;;
34453;SDS011;60061;52.080;5.312;2022-11-15T02:08:24;62.2;;;26.2;;
34453;SDS011;60061;52.080;5.312;2022-11-15T02:10:02;64.91;;;27.4;;
34453;SDS011;60061;52.080;5.312;2022-11-15T02:13:24;63.4;;;26.6;;
34453;SDS011;60061;52.080;5.312;2022-11-15T02:15:00;55.8;;;27.5;;
34453;SDS011;60061;52.080;5.312;2022-11-15T02:16:41;61.9;;;27.6;;
34453;SDS011;60061;52.080;5.312;2022-11-15T02:18:34;65.3;;;27.3;;
34453;SDS011;60061;52.080;5.312;2022-11-15T02:22:34;66.2;;;27.4;;
34453;SDS011;60061;52.080;5.312;2022-11-15T02:26:41;62.5;;;26.2;;
34453;SDS011;60061;52.080;5.312;2022-11-15T02:28:44;66.1;;;28.3;;
34453;SDS011;60061;52.080;5.312;2022-11-15T02:32:18;60.7;;;27.0;;
34453;SDS011;60061;52.080;5.312;2022-11-15T02:34:02;64.3;;;27.1;;
34453;SDS011;60061;52.080;5.312;2022-11-15T02:35:48;59.0;;;27.1;;
34453;SDS011;60061;52.080;5.312;2022-11-15T02:37:37;62.0;;;27.0;;
34453;SDS011;60061;52.080;5.312;2022-11-15T02:39:23;59.9;;;27.6;;
34453;SDS011;60061;52.080;5.312;2022-11-15T02:44:07;60.6;;;27.1;;
34453;SDS011;60061;52.080;5.312;2022-11-15T02:45:50;59.2;;;27.5;;
34453;SDS011;60061;52.080;5.312;2022-11-15T02:47:32;60.5;;;26.0;;
34453;SDS011;60061;52.080;5.312;2022-11-15T02:50:54;56.3;;;25.6;;
34453;SDS011;60061;52.080;5.312;2022-11-15T02:52:32;57.7;;;26.7;;
34453;SDS011;60061;52.080;5.312;2022-11-15T02:54:10;59.1;;;25.9;;
34453;SDS011;60061;52.080;5.312;2022-11-15T02:57:33;56.0;;;24.7;;
34453;SDS011;60061;52.080;5.312;2022-11-15T02:59:23;48.1;;;24.1;;
34453;SDS011;60061;52.080;5.312;2022-11-15T03:01:33;51.6;;;25.0;;
34453;SDS011;60061;52.080;5.312;2022-11-15T03:03:24;60.6;;;25.2;;
34453;SDS011;60061;52.080;5.312;2022-11-15T03:05:18;49.2;;;24.3;;
34453;SDS011;60061;52.080;5.312;2022-11-15T03:07:02;49.6;;;24.5;;
34453;SDS011;60061;52.080;5.312;2022-11-15T03:08:50;54.4;;;24.4;;
34453;SDS011;60061;52.080;5.312;2022-11-15T03:10:37;50.5;;;24.2;;
34453;SDS011;60061;52.080;5.312;2022-11-15T03:14:08;45.5;;;22.6;;
34453;SDS011;60061;52.080;5.312;2022-11-15T03:15:57;56.0;;;24.6;;
34453;SDS011;60061;52.080;5.312;2022-11-15T03:17:42;49.7;;;24.1;;
34453;SDS011;60061;52.080;5.312;2022-11-15T03:19:26;51.0;;;24.3;;
34453;SDS011;60061;52.080;5.312;2022-11-15T03:21:11;51.0;;;24.3;;
34453;SDS011;60061;52.080;5.312;2022-11-15T03:24:30;54.0;;;23.6;;
34453;SDS011;60061;52.080;5.312;2022-11-15T03:26:12;55.0;;;23.7;;
34453;SDS011;60061;52.080;5.312;2022-11-15T03:27:52;55.8;;;25.6;;
34453;SDS011;60061;52.080;5.312;2022-11-15T03:29:33;52.9;;;24.3;;
34453;SDS011;60061;52.080;5.312;2022-11-15T03:34:00;52.6;;;24.6;;
34453;SDS011;60061;52.080;5.312;2022-11-15T03:35:42;54.3;;;23.7;;
34453;SDS011;60061;52.080;5.312;2022-11-15T03:39:05;47.1;;;22.3;;
34453;SDS011;60061;52.080;5.312;2022-11-15T03:40:45;46.4;;;22.9;;
34453;SDS011;60061;52.080;5.312;2022-11-15T03:42:30;45.9;;;23.7;;
34453;SDS011;60061;52.080;5.312;2022-11-15T03:44:13;43.7;;;22.1;;
34453;SDS011;60061;52.080;5.312;2022-11-15T03:47:38;51.3;;;23.6;;
34453;SDS011;60061;52.080;5.312;2022-11-15T03:49:19;45.1;;;22.2;;
34453;SDS011;60061;52.080;5.312;2022-11-15T03:51:02;38.5;;;20.8;;
34453;SDS011;60061;52.080;5.312;2022-11-15T03:52:40;43.6;;;22.1;;
34453;SDS011;60061;52.080;5.312;2022-11-15T03:55:54;46.1;;;22.4;;
34453;SDS011;60061;52.080;5.312;2022-11-15T03:57:30;44.9;;;22.1;;
34453;SDS011;60061;52.080;5.312;2022-11-15T03:59:07;44.3;;;22.6;;
34453;SDS011;60061;52.080;5.312;2022-11-15T04:00:43;45.4;;;22.2;;
34453;SDS011;60061;52.080;5.312;2022-11-15T04:03:55;48.0;;;23.7;;
34453;SDS011;60061;52.080;5.312;2022-11-15T04:05:31;49.1;;;23.0;;
34453;SDS011;60061;52.080;5.312;2022-11-15T04:07:07;48.5;;;22.9;;
34453;SDS011;60061;52.080;5.312;2022-11-15T04:10:20;47.1;;;23.5;;
34453;SDS011;60061;52.080;5.312;2022-11-15T04:11:56;44.7;;;22.5;;
34453;SDS011;60061;52.080;5.312;2022-11-15T04:13:32;46.8;;;22.3;;
34453;SDS011;60061;52.080;5.312;2022-11-15T04:16:47;46.2;;;22.7;;
34453;SDS011;60061;52.080;5.312;2022-11-15T04:18:24;48.9;;;23.5;;
34453;SDS011;60061;52.080;5.312;2022-11-15T04:24:14;46.1;;;22.6;;
34453;SDS011;60061;52.080;5.312;2022-11-15T04:25:51;51.3;;;24.0;;
34453;SDS011;60061;52.080;5.312;2022-11-15T04:29:38;48.3;;;22.7;;
34453;SDS011;60061;52.080;5.312;2022-11-15T04:31:14;44.6;;;22.7;;
34453;SDS011;60061;52.080;5.312;2022-11-15T04:34:27;45.5;;;22.4;;
34453;SDS011;60061;52.080;5.312;2022-11-15T04:38:58;43.8;;;22.6;;
34453;SDS011;60061;52.080;5.312;2022-11-15T04:40:34;42.9;;;22.0;;
34453;SDS011;60061;52.080;5.312;2022-11-15T04:43:48;45.5;;;22.8;;
34453;SDS011;60061;52.080;5.312;2022-11-15T04:45:24;44.8;;;21.5;;
34453;SDS011;60061;52.080;5.312;2022-11-15T04:47:01;41.9;;;21.4;;
34453;SDS011;60061;52.080;5.312;2022-11-15T04:50:14;42.9;;;21.8;;
34453;SDS011;60061;52.080;5.312;2022-11-15T04:51:52;46.1;;;22.5;;
34453;SDS011;60061;52.080;5.312;2022-11-15T04:53:28;47.7;;;22.7;;
34453;SDS011;60061;52.080;5.312;2022-11-15T04:56:42;40.4;;;21.5;;
34453;SDS011;60061;52.080;5.312;2022-11-15T04:58:18;46.9;;;22.2;;
34453;SDS011;60061;52.080;5.312;2022-11-15T04:59:54;43.4;;;21.9;;
34453;SDS011;60061;52.080;5.312;2022-11-15T05:01:30;40.1;;;21.3;;
34453;SDS011;60061;52.080;5.312;2022-11-15T05:06:00;38.4;;;20.2;;
34453;SDS011;60061;52.080;5.312;2022-11-15T05:09:13;38.6;;;20.6;;
34453;SDS011;60061;52.080;5.312;2022-11-15T05:10:49;43.3;;;21.8;;
34453;SDS011;60061;52.080;5.312;2022-11-15T05:12:25;40.5;;;21.9;;
34453;SDS011;60061;52.080;5.312;2022-11-15T05:14:02;39.9;;;20.7;;
34453;SDS011;60061;52.080;5.312;2022-11-15T05:17:14;39.4;;;20.2;;
34453;SDS011;60061;52.080;5.312;2022-11-15T05:18:50;37.5;;;20.2;;
34453;SDS011;60061;52.080;5.312;2022-11-15T05:20:27;40.71;;;20.7;;
34453;SDS011;60061;52.080;5.312;2022-11-15T05:23:39;38.6;;;20.7;;
34453;SDS011;60061;52.080;5.312;2022-11-15T05:25:17;36.81;;;20.0;;
34453;SDS011;60061;52.080;5.312;2022-11-15T05:26:53;38.21;;;20.11;;
34453;SDS011;60061;52.080;5.312;2022-11-15T05:30:06;42.2;;;20.8;;
34453;SDS011;60061;52.080;5.312;2022-11-15T05:31:43;36.31;;;20.7;;
34453;SDS011;60061;52.080;5.312;2022-11-15T05:33:19;37.9;;;20.0;;
34453;SDS011;60061;52.080;5.312;2022-11-15T05:34:56;34.71;;;19.7;;
34453;SDS011;60061;52.080;5.312;2022-11-15T05:38:13;41.7;;;21.4;;
34453;SDS011;60061;52.080;5.312;2022-11-15T05:39:49;36.0;;;19.91;;
34453;SDS011;60061;52.080;5.312;2022-11-15T05:41:27;37.6;;;20.0;;
34453;SDS011;60061;52.080;5.312;2022-11-15T05:44:47;36.81;;;19.61;;
34453;SDS011;60061;52.080;5.312;2022-11-15T05:46:27;36.4;;;19.5;;
34453;SDS011;60061;52.080;5.312;2022-11-15T05:48:04;42.6;;;21.3;;
34453;SDS011;60061;52.080;5.312;2022-11-15T05:49:45;40.21;;;21.1;;
34453;SDS011;60061;52.080;5.312;2022-11-15T05:53:00;42.2;;;20.8;;
34453;SDS011;60061;52.080;5.312;2022-11-15T05:54:37;42.4;;;20.2;;
34453;SDS011;60061;52.080;5.312;2022-11-15T05:56:14;46.2;;;21.8;;
34453;SDS011;60061;52.080;5.312;2022-11-15T05:57:51;51.8;;;25.8;;
34453;SDS011;60061;52.080;5.312;2022-11-15T06:01:06;43.7;;;23.3;;
34453;SDS011;60061;52.080;5.312;2022-11-15T06:02:42;43.8;;;23.2;;
34453;SDS011;60061;52.080;5.312;2022-11-15T06:04:18;42.0;;;21.4;;
34453;SDS011;60061;52.080;5.312;2022-11-15T06:07:32;42.9;;;21.5;;
34453;SDS011;60061;52.080;5.312;2022-11-15T06:09:09;40.4;;;20.5;;
34453;SDS011;60061;52.080;5.312;2022-11-15T06:10:45;41.5;;;21.4;;
34453;SDS011;60061;52.080;5.312;2022-11-15T06:13:57;39.0;;;20.7;;
34453;SDS011;60061;52.080;5.312;2022-11-15T06:15:33;43.2;;;21.3;;
34453;SDS011;60061;52.080;5.312;2022-11-15T06:17:10;40.81;;;21.6;;
34453;SDS011;60061;52.080;5.312;2022-11-15T06:18:47;42.7;;;22.1;;
34453;SDS011;60061;52.080;5.312;2022-11-15T06:21:59;44.7;;;21.9;;
34453;SDS011;60061;52.080;5.312;2022-11-15T06:23:35;43.3;;;20.7;;
34453;SDS011;60061;52.080;5.312;2022-11-15T06:25:11;39.0;;;20.7;;
34453;SDS011;60061;52.080;5.312;2022-11-15T06:28:24;38.21;;;20.9;;
34453;SDS011;60061;52.080;5.312;2022-11-15T06:30:00;41.2;;;21.1;;
34453;SDS011;60061;52.080;5.312;2022-11-15T06:31:36;43.6;;;21.1;;
34453;SDS011;60061;52.080;5.312;2022-11-15T06:34:48;41.1;;;22.3;;
34453;SDS011;60061;52.080;5.312;2022-11-15T06:36:24;38.1;;;20.7;;
34453;SDS011;60061;52.080;5.312;2022-11-15T06:38:01;41.7;;;20.7;;
34453;SDS011;60061;52.080;5.312;2022-11-15T06:41:17;44.2;;;21.8;;
34453;SDS011;60061;52.080;5.312;2022-11-15T06:42:56;42.7;;;21.9;;
34453;SDS011;60061;52.080;5.312;2022-11-15T06:44:34;45.0;;;21.0;;
34453;SDS011;60061;52.080;5.312;2022-11-15T06:46:10;41.2;;;20.2;;
34453;SDS011;60061;52.080;5.312;2022-11-15T06:49:23;41.0;;;20.11;;
34453;SDS011;60061;52.080;5.312;2022-11-15T06:51:00;41.1;;;21.0;;
34453;SDS011;60061;52.080;5.312;2022-11-15T06:52:38;40.31;;;20.7;;
34453;SDS011;60061;52.080;5.312;2022-11-15T06:55:51;38.4;;;20.5;;
34453;SDS011;60061;52.080;5.312;2022-11-15T06:57:28;43.6;;;21.0;;
34453;SDS011;60061;52.080;5.312;2022-11-15T06:59:04;44.6;;;21.1;;
34453;SDS011;60061;52.080;5.312;2022-11-15T07:00:40;43.4;;;21.8;;
34453;SDS011;60061;52.080;5.312;2022-11-15T07:03:54;43.9;;;22.3;;
34453;SDS011;60061;52.080;5.312;2022-11-15T07:05:30;42.2;;;22.0;;
34453;SDS011;60061;52.080;5.312;2022-11-15T07:07:07;39.9;;;21.3;;
34453;SDS011;60061;52.080;5.312;2022-11-15T07:10:19;41.5;;;21.0;;
34453;SDS011;60061;52.080;5.312;2022-11-15T07:11:56;37.31;;;19.0;;
34453;SDS011;60061;52.080;5.312;2022-11-15T07:13:33;42.0;;;21.2;;
34453;SDS011;60061;52.080;5.312;2022-11-15T07:16:47;41.1;;;20.9;;
34453;SDS011;60061;52.080;5.312;2022-11-15T07:18:23;40.71;;;22.7;;
34453;SDS011;60061;52.080;5.312;2022-11-15T07:19:59;39.31;;;19.7;;
34453;SDS011;60061;52.080;5.312;2022-11-15T07:21:35;37.71;;;20.5;;
34453;SDS011;60061;52.080;5.312;2022-11-15T07:24:49;40.1;;;20.11;;
34453;SDS011;60061;52.080;5.312;2022-11-15T07:26:25;63.4;;;32.1;;
34453;SDS011;60061;52.080;5.312;2022-11-15T07:28:01;39.4;;;21.2;;
34453;SDS011;60061;52.080;5.312;2022-11-15T07:31:14;36.0;;;19.91;;
34453;SDS011;60061;52.080;5.312;2022-11-15T07:32:52;34.9;;;18.7;;
34453;SDS011;60061;52.080;5.312;2022-11-15T07:34:30;36.1;;;19.61;;
34453;SDS011;60061;52.080;5.312;2022-11-15T07:37:52;34.0;;;18.7;;
34453;SDS011;60061;52.080;5.312;2022-11-15T07:39:29;38.6;;;19.7;;
34453;SDS011;60061;52.080;5.312;2022-11-15T07:41:05;37.31;;;19.0;;
34453;SDS011;60061;52.080;5.312;2022-11-15T07:42:59;35.0;;;18.3;;
34453;SDS011;60061;52.080;5.312;2022-11-15T07:44:35;33.71;;;18.8;;
34453;SDS011;60061;52.080;5.312;2022-11-15T07:47:47;36.21;;;18.41;;
34453;SDS011;60061;52.080;5.312;2022-11-15T07:49:24;35.4;;;17.8;;
34453;SDS011;60061;52.080;5.312;2022-11-15T07:51:01;31.9;;;17.7;;
34453;SDS011;60061;52.080;5.312;2022-11-15T07:54:14;32.1;;;17.5;;
34453;SDS011;60061;52.080;5.312;2022-11-15T07:55:50;36.5;;;18.2;;
34453;SDS011;60061;52.080;5.312;2022-11-15T07:57:26;34.4;;;17.61;;
34453;SDS011;60061;52.080;5.312;2022-11-15T08:00:39;32.21;;;16.3;;
34453;SDS011;60061;52.080;5.312;2022-11-15T08:02:17;30.7;;;17.61;;
34453;SDS011;60061;52.080;5.312;2022-11-15T08:03:54;32.21;;;16.9;;
34453;SDS011;60061;52.080;5.312;2022-11-15T08:05:30;35.81;;;17.41;;
34453;SDS011;60061;52.080;5.312;2022-11-15T08:08:42;35.81;;;17.41;;
34453;SDS011;60061;52.080;5.312;2022-11-15T08:10:20;32.1;;;17.41;;
34453;SDS011;60061;52.080;5.312;2022-11-15T08:11:56;35.81;;;17.41;;
34453;SDS011;60061;52.080;5.312;2022-11-15T08:15:08;36.1;;;18.0;;
34453;SDS011;60061;52.080;5.312;2022-11-15T08:16:45;33.4;;;17.5;;
34453;SDS011;60061;52.080;5.312;2022-11-15T08:18:21;32.5;;;16.9;;
34453;SDS011;60061;52.080;5.312;2022-11-15T08:21:35;28.1;;;16.61;;
34453;SDS011;60061;52.080;5.312;2022-11-15T08:23:11;30.0;;;16.2;;
34453;SDS011;60061;52.080;5.312;2022-11-15T08:24:48;34.0;;;17.0;;
34453;SDS011;60061;52.080;5.312;2022-11-15T08:26:26;35.71;;;16.5;;
34453;SDS011;60061;52.080;5.312;2022-11-15T08:29:43;35.1;;;16.2;;
34453;SDS011;60061;52.080;5.312;2022-11-15T08:31:20;32.3;;;17.2;;
34453;SDS011;60061;52.080;5.312;2022-11-15T08:32:56;27.3;;;15.7;;
34453;SDS011;60061;52.080;5.312;2022-11-15T08:36:11;30.5;;;15.9;;
34453;SDS011;60061;52.080;5.312;2022-11-15T08:37:52;29.1;;;15.0;;
34453;SDS011;60061;52.080;5.312;2022-11-15T08:39:29;27.6;;;15.5;;
34453;SDS011;60061;52.080;5.312;2022-11-15T08:41:06;29.0;;;16.2;;
34453;SDS011;60061;52.080;5.312;2022-11-15T08:44:21;32.5;;;16.2;;
34453;SDS011;60061;52.080;5.312;2022-11-15T08:45:57;29.2;;;15.5;;
34453;SDS011;60061;52.080;5.312;2022-11-15T08:47:34;28.3;;;14.8;;
34453;SDS011;60061;52.080;5.312;2022-11-15T08:50:47;25.1;;;14.2;;
34453;SDS011;60061;52.080;5.312;2022-11-15T08:52:23;29.1;;;14.1;;
34453;SDS011;60061;52.080;5.312;2022-11-15T08:53:59;26.7;;;14.0;;
34453;SDS011;60061;52.080;5.312;2022-11-15T08:57:13;27.0;;;14.6;;
34453;SDS011;60061;52.080;5.312;2022-11-15T08:58:50;27.1;;;14.0;;
34453;SDS011;60061;52.080;5.312;2022-11-15T09:00:27;27.6;;;13.8;;
34453;SDS011;60061;52.080;5.312;2022-11-15T09:02:03;26.7;;;13.7;;
34453;SDS011;60061;52.080;5.312;2022-11-15T09:05:18;23.3;;;13.4;;
34453;SDS011;60061;52.080;5.312;2022-11-15T09:06:55;23.7;;;12.4;;
34453;SDS011;60061;52.080;5.312;2022-11-15T09:08:31;23.7;;;12.4;;
34453;SDS011;60061;52.080;5.312;2022-11-15T09:11:44;25.1;;;12.8;;
34453;SDS011;60061;52.080;5.312;2022-11-15T09:13:20;28.4;;;14.5;;
34453;SDS011;60061;52.080;5.312;2022-11-15T09:14:58;22.0;;;13.0;;
34453;SDS011;60061;52.080;5.312;2022-11-15T09:18:10;23.7;;;12.7;;
34453;SDS011;60061;52.080;5.312;2022-11-15T09:19:45;22.3;;;12.9;;
34453;SDS011;60061;52.080;5.312;2022-11-15T09:21:21;25.9;;;12.9;;
34453;SDS011;60061;52.080;5.312;2022-11-15T09:22:58;23.1;;;13.0;;
34453;SDS011;60061;52.080;5.312;2022-11-15T09:26:12;21.8;;;12.8;;
34453;SDS011;60061;52.080;5.312;2022-11-15T09:27:49;25.7;;;13.0;;
34453;SDS011;60061;52.080;5.312;2022-11-15T09:29:25;22.5;;;12.2;;
34453;SDS011;60061;52.080;5.312;2022-11-15T09:32:41;25.5;;;12.7;;
34453;SDS011;60061;52.080;5.312;2022-11-15T09:34:18;27.7;;;13.3;;
34453;SDS011;60061;52.080;5.312;2022-11-15T09:35:54;23.5;;;13.5;;
34453;SDS011;60061;52.080;5.312;2022-11-15T09:37:35;21.3;;;12.3;;
34453;SDS011;60061;52.080;5.312;2022-11-15T09:40:50;20.9;;;11.6;;
34453;SDS011;60061;52.080;5.312;2022-11-15T09:42:47;23.7;;;12.7;;
34453;SDS011;60061;52.080;5.312;2022-11-15T09:44:40;21.4;;;11.5;;
34453;SDS011;60061;52.080;5.312;2022-11-15T09:46:26;24.2;;;11.9;;
34453;SDS011;60061;52.080;5.312;2022-11-15T09:48:24;20.0;;;11.8;;
34453;SDS011;60061;52.080;5.312;2022-11-15T09:50:28;19.7;;;11.2;;
34453;SDS011;60061;52.080;5.312;2022-11-15T09:52:10;20.0;;;10.5;;
34453;SDS011;60061;52.080;5.312;2022-11-15T09:55:34;19.8;;;10.5;;
34453;SDS011;60061;52.080;5.312;2022-11-15T09:57:32;18.2;;;10.6;;
34453;SDS011;60061;52.080;5.312;2022-11-15T09:59:21;18.91;;;10.3;;
34453;SDS011;60061;52.080;5.312;2022-11-15T10:03:27;15.8;;;9.4;;
34453;SDS011;60061;52.080;5.312;2022-11-15T10:05:10;15.2;;;9.21;;
34453;SDS011;60061;52.080;5.312;2022-11-15T10:06:54;16.9;;;8.9;;
34453;SDS011;60061;52.080;5.312;2022-11-15T10:10:32;14.3;;;9.31;;
34453;SDS011;60061;52.080;5.312;2022-11-15T10:12:14;13.3;;;8.4;;
34453;SDS011;60061;52.080;5.312;2022-11-15T10:13:54;14.5;;;8.31;;
34453;SDS011;60061;52.080;5.312;2022-11-15T10:15:34;15.3;;;8.81;;
34453;SDS011;60061;52.080;5.312;2022-11-15T10:20:10;14.8;;;9.31;;
34453;SDS011;60061;52.080;5.312;2022-11-15T10:21:58;13.4;;;8.9;;
34453;SDS011;60061;52.080;5.312;2022-11-15T10:23:44;14.4;;;8.2;;
34453;SDS011;60061;52.080;5.312;2022-11-15T10:26:59;10.5;;;7.0;;
34453;SDS011;60061;52.080;5.312;2022-11-15T10:28:36;11.2;;;6.9;;
34453;SDS011;60061;52.080;5.312;2022-11-15T10:30:14;12.5;;;7.1;;
34453;SDS011;60061;52.080;5.312;2022-11-15T10:33:30;9.6;;;6.6;;
34453;SDS011;60061;52.080;5.312;2022-11-15T10:35:24;10.1;;;6.6;;
34453;SDS011;60061;52.080;5.312;2022-11-15T10:37:02;10.6;;;6.1;;
34453;SDS011;60061;52.080;5.312;2022-11-15T10:38:49;10.8;;;6.1;;
34453;SDS011;60061;52.080;5.312;2022-11-15T10:40:28;8.71;;;6.0;;
34453;SDS011;60061;52.080;5.312;2022-11-15T10:44:17;15.1;;;7.9;;
34453;SDS011;60061;52.080;5.312;2022-11-15T10:46:16;10.6;;;6.0;;
34453;SDS011;60061;52.080;5.312;2022-11-15T10:48:19;6.9;;;5.4;;
34453;SDS011;60061;52.080;5.312;2022-11-15T10:50:01;10.5;;;5.4;;
34453;SDS011;60061;52.080;5.312;2022-11-15T10:51:43;9.6;;;5.5;;
34453;SDS011;60061;52.080;5.312;2022-11-15T10:53:25;9.6;;;5.5;;
34453;SDS011;60061;52.080;5.312;2022-11-15T10:55:19;13.2;;;6.6;;
34453;SDS011;60061;52.080;5.312;2022-11-15T10:58:44;8.9;;;4.5;;
34453;SDS011;60061;52.080;5.312;2022-11-15T11:00:29;8.81;;;4.5;;
34453;SDS011;60061;52.080;5.312;2022-11-15T11:02:23;6.0;;;4.0;;
34453;SDS011;60061;52.080;5.312;2022-11-15T11:04:11;6.1;;;3.5;;
34453;SDS011;60061;52.080;5.312;2022-11-15T11:05:47;6.8;;;3.9;;
34453;SDS011;60061;52.080;5.312;2022-11-15T11:09:03;9.6;;;3.8;;
34453;SDS011;60061;52.080;5.312;2022-11-15T11:10:51;6.8;;;3.6;;
34453;SDS011;60061;52.080;5.312;2022-11-15T11:12:30;5.3;;;3.0;;
34453;SDS011;60061;52.080;5.312;2022-11-15T11:14:11;6.4;;;3.7;;
34453;SDS011;60061;52.080;5.312;2022-11-15T11:17:51;5.7;;;2.9;;
34453;SDS011;60061;52.080;5.312;2022-11-15T11:19:43;5.6;;;3.3;;
34453;SDS011;60061;52.080;5.312;2022-11-15T11:21:35;7.9;;;4.0;;
34453;SDS011;60061;52.080;5.312;2022-11-15T11:23:26;4.41;;;2.8;;
34453;SDS011;60061;52.080;5.312;2022-11-15T11:25:19;5.7;;;3.1;;
34453;SDS011;60061;52.080;5.312;2022-11-15T11:27:11;3.8;;;2.8;;
34453;SDS011;60061;52.080;5.312;2022-11-15T11:29:12;5.4;;;2.9;;
34453;SDS011;60061;52.080;5.312;2022-11-15T11:31:07;6.5;;;2.5;;
34453;SDS011;60061;52.080;5.312;2022-11-15T11:32:59;6.7;;;2.9;;
34453;SDS011;60061;52.080;5.312;2022-11-15T11:34:48;4.7;;;2.6;;
34453;SDS011;60061;52.080;5.312;2022-11-15T11:38:29;5.6;;;2.8;;
34453;SDS011;60061;52.080;5.312;2022-11-15T11:40:23;5.6;;;2.8;;
34453;SDS011;60061;52.080;5.312;2022-11-15T11:42:07;5.3;;;2.31;;
34453;SDS011;60061;52.080;5.312;2022-11-15T11:43:56;4.8;;;2.1;;
34453;SDS011;60061;52.080;5.312;2022-11-15T11:45:56;4.7;;;1.8;;
34453;SDS011;60061;52.080;5.312;2022-11-15T11:47:51;3.1;;;1.6;;
34453;SDS011;60061;52.080;5.312;2022-11-15T11:49:39;5.9;;;2.0;;
34453;SDS011;60061;52.080;5.312;2022-11-15T11:53:03;3.7;;;1.7;;
34453;SDS011;60061;52.080;5.312;2022-11-15T11:54:51;4.5;;;1.8;;
34453;SDS011;60061;52.080;5.312;2022-11-15T11:56:37;6.5;;;2.21;;
34453;SDS011;60061;52.080;5.312;2022-11-15T11:58:19;3.9;;;2.0;;
34453;SDS011;60061;52.080;5.312;2022-11-15T12:00:03;4.0;;;1.8;;
34453;SDS011;60061;52.080;5.312;2022-11-15T12:03:28;3.8;;;1.8;;
34453;SDS011;60061;52.080;5.312;2022-11-15T12:05:16;3.8;;;1.8;;
34453;SDS011;60061;52.080;5.312;2022-11-15T12:07:07;3.9;;;1.6;;
34453;SDS011;60061;52.080;5.312;2022-11-15T12:08:52;3.5;;;1.7;;
34453;SDS011;60061;52.080;5.312;2022-11-15T12:10:33;3.6;;;1.5;;
34453;SDS011;60061;52.080;5.312;2022-11-15T12:13:55;2.21;;;1.5;;
34453;SDS011;60061;52.080;5.312;2022-11-15T12:15:37;3.6;;;1.3;;
34453;SDS011;60061;52.080;5.312;2022-11-15T12:17:19;3.9;;;1.8;;
34453;SDS011;60061;52.080;5.312;2022-11-15T12:19:00;3.9;;;1.8;;
34453;SDS011;60061;52.080;5.312;2022-11-15T12:22:30;3.5;;;1.4;;
34453;SDS011;60061;52.080;5.312;2022-11-15T12:24:20;4.1;;;1.3;;
34453;SDS011;60061;52.080;5.312;2022-11-15T12:26:04;5.4;;;1.4;;
34453;SDS011;60061;52.080;5.312;2022-11-15T12:27:46;4.8;;;1.5;;
34453;SDS011;60061;52.080;5.312;2022-11-15T12:29:29;6.1;;;1.6;;
34453;SDS011;60061;52.080;5.312;2022-11-15T12:31:18;4.3;;;1.5;;
34453;SDS011;60061;52.080;5.312;2022-11-15T12:34:43;3.3;;;1.3;;
34453;SDS011;60061;52.080;5.312;2022-11-15T12:36:30;4.61;;;1.7;;
34453;SDS011;60061;52.080;5.312;2022-11-15T12:38:48;5.3;;;1.5;;
34453;SDS011;60061;52.080;5.312;2022-11-15T12:40:31;5.3;;;1.6;;
34453;SDS011;60061;52.080;5.312;2022-11-15T12:42:35;6.1;;;2.0;;
34453;SDS011;60061;52.080;5.312;2022-11-15T12:44:56;6.4;;;1.6;;
34453;SDS011;60061;52.080;5.312;2022-11-15T12:47:21;3.9;;;1.7;;
34453;SDS011;60061;52.080;5.312;2022-11-15T12:49:00;2.9;;;1.5;;
34453;SDS011;60061;52.080;5.312;2022-11-15T12:50:59;8.0;;;2.9;;
34453;SDS011;60061;52.080;5.312;2022-11-15T12:52:35;6.6;;;1.7;;
34453;SDS011;60061;52.080;5.312;2022-11-15T12:55:30;3.7;;;1.5;;
34453;SDS011;60061;52.080;5.312;2022-11-15T12:57:40;5.6;;;1.5;;
34453;SDS011;60061;52.080;5.312;2022-11-15T12:59:47;4.8;;;1.3;;
34453;SDS011;60061;52.080;5.312;2022-11-15T13:01:57;7.1;;;1.8;;
34453;SDS011;60061;52.080;5.312;2022-11-15T13:04:11;4.1;;;1.5;;
34453;SDS011;60061;52.080;5.312;2022-11-15T13:05:59;4.1;;;1.4;;